ASN logo
Accident
Last updated: 18 October 2017
Status:Zwischenbericht
Datum:Dienstag 4 Februar 2014
Zeit:18:30
Flugzeugtyp:Silhouette image of generic MA60 model; specific model in this crash may look slightly different
Xian MA60
Fluggesellschaft:Joy Air
Kennzeichen: B-3455
Werknummer: 0803
Baujahr: 2010
Triebwerk: 2 Pratt & Whitney Canada PW127J
Besatzung:Todesopfer: 0 / Insassen: 7
Fluggäste:Todesopfer: 0 / Insassen: 37
Gesamt:Todesopfer: 0 / Insassen: 44
Sachschaden: schwer beschädigt
Konsequenzen: Repaired
Unfallort:Zhengzhou-Xinzheng International Airport (CGO) (   Volksrepublik China)
Flugphase: Landung (LDG)
Betriebsart:Inländischer planmäßiger Passagierflug
Flug von:Taiyuan Airport (TYN/ZBYN), Volksrepublik China
Flug nach:Zhengzhou-Xinzheng International Airport (CGO/ZHCC), Volksrepublik China
Flugnummer:1533
Unfallbericht:
A Xian MA60 passenger plane, operated by Joy Air, suffered a landing accident at Zhengzhou-Xinzheng International Airport (CGO), China.
The airplane was landing at Zhengzhou following a flight from Taiyuan (JR-1533) when the nose undercarriage unexpectedly retracted. The nose of the plane consequently contacted the runway. The were no personal injuries, but the was some damage to the plane.

Informationsquelle:
» Sohu.com
» Shanghai Daily

METAR Weather report:
10:00 UTC / 18:00 local time:
ZHCC 041000Z 10007MPS CAVOK 01/M12 Q1024 NOSIG

11:00 UTC / 19:00 local time:
ZHCC 041100Z 07004MPS CAVOK 01/M10 Q1025 NOSIG


Fotos

photo of Xian MA60 B-3455
Add your photo of this accident or aircraft
 

Video, social media

Map
This map shows the airport of departure and the intended destination of the flight. The line between the airports does not display the exact flight path.
Distance from Taiyuan Airport to Zhengzhou-Xinzheng International Airport as the crow flies is 372 km (233 miles).
Accident location: Approximate; accuracy within a few kilometers.

This information is not presented as the Flight Safety Foundation or the Aviation Safety Network’s opinion as to the cause of the accident. It is preliminary and is based on the facts as they are known at this time.
languages: languages

Share